^^
Your Local Weather - Clay, NY Station Historical Data
Daily Summary for March 6, 2017 Units:  English    Metric   Both
« Previous Day
Next Day »
Daily Weekly Monthly Yearly Custom
  High: Low: Average:
Temperature: 42.7 °F 19.1 °F 31.5 °F
Dew Point: 22.6 °F 1.9 °F 13.7 °F
Humidity: 60% 39% 48%
Wind Speed: 6.0mph 0.0mph 3.1mph
Wind Gust: 11.0mph - -
Wind- - ENE
Pressure: 30.48 in 30.17 in -
Precipitation: 0.00 in    
Historical Graphs
 
 
Tabular Data for March 6, 2017
Time Temperature Dew Point Pressure Wind Wind Speed Wind Gust Humidity Rainfall Rate (Hourly) solar
00:00 19.1 °F 3.5 °F 30.47 in East 1.0 mph 1.0 mph 50% 0.00 in 0 W/m2
00:06 19.3 °F 3.7 °F 30.47 in East 1.0 mph 3.0 mph 50% 0.00 in 0 W/m2
00:12 19.7 °F 4.0 °F 30.47 in ENE 1.0 mph 1.0 mph 50% 0.00 in 0 W/m2
00:18 20.2 °F 3.6 °F 30.47 in ENE 1.0 mph 3.0 mph 48% 0.00 in 0 W/m2
00:24 20.5 °F 3.4 °F 30.47 in ENE 1.0 mph 1.0 mph 47% 0.00 in 0 W/m2
00:30 20.6 °F 3.1 °F 30.47 in Calm   1.0 mph 46% 0.00 in 0 W/m2
00:36 20.8 °F 2.8 °F 30.48 in East 1.0 mph 2.0 mph 45% 0.00 in 0 W/m2
00:42 21.1 °F 3.0 °F 30.48 in ESE 1.0 mph 2.0 mph 45% 0.00 in 0 W/m2
00:48 21.6 °F 2.0 °F 30.48 in ENE 1.0 mph 3.0 mph 42% 0.00 in 0 W/m2
00:54 21.8 °F 3.2 °F 30.48 in ENE 2.0 mph 2.0 mph 44% 0.00 in 0 W/m2
01:00 21.9 °F 2.3 °F 30.48 in East 2.0 mph 2.0 mph 42% 0.00 in 0 W/m2
01:06 22.0 °F 2.4 °F 30.48 in East 2.0 mph 2.0 mph 42% 0.00 in 0 W/m2
01:12 22.1 °F 1.9 °F 30.47 in SE 2.0 mph 2.0 mph 41% 0.00 in 0 W/m2
01:18 22.3 °F 2.6 °F 30.47 in East 2.0 mph 6.0 mph 42% 0.00 in 0 W/m2
01:24 22.4 °F 2.7 °F 30.47 in SE 2.0 mph 6.0 mph 42% 0.00 in 0 W/m2
01:30 22.4 °F 2.2 °F 30.47 in East 3.0 mph 3.0 mph 41% 0.00 in 0 W/m2
01:36 22.4 °F 2.7 °F 30.48 in ENE 2.0 mph 3.0 mph 42% 0.00 in 0 W/m2
01:42 22.5 °F 2.8 °F 30.48 in SE 1.0 mph 3.0 mph 42% 0.00 in 0 W/m2
01:48 22.5 °F 2.8 °F 30.48 in ENE 2.0 mph 3.0 mph 42% 0.00 in 0 W/m2
01:54 22.5 °F 3.8 °F 30.47 in SE 1.0 mph 2.0 mph 44% 0.00 in 0 W/m2
02:00 22.6 °F 3.4 °F 30.47 in ENE 2.0 mph 2.0 mph 43% 0.00 in 0 W/m2
02:06 22.6 °F 3.4 °F 30.47 in ENE 2.0 mph 4.0 mph 43% 0.00 in 0 W/m2
02:12 22.6 °F 3.4 °F 30.46 in ENE 2.0 mph 2.0 mph 43% 0.00 in 0 W/m2
02:18 22.6 °F 3.4 °F 30.46 in ENE 3.0 mph 5.0 mph 43% 0.00 in 0 W/m2
02:24 22.6 °F 3.4 °F 30.46 in ENE 3.0 mph 4.0 mph 43% 0.00 in 0 W/m2
02:30 22.7 °F 4.0 °F 30.46 in ENE 2.0 mph 2.0 mph 44% 0.00 in 0 W/m2
02:36 22.6 °F 4.4 °F 30.46 in ENE 1.0 mph 2.0 mph 45% 0.00 in 0 W/m2
02:42 22.6 °F 5.8 °F 30.44 in ENE 2.0 mph 3.0 mph 48% 0.00 in 0 W/m2
02:48 22.6 °F 5.4 °F 30.44 in ENE 2.0 mph 3.0 mph 47% 0.00 in 0 W/m2
02:54 22.5 °F 5.7 °F 30.44 in East 2.0 mph 3.0 mph 48% 0.00 in 0 W/m2
03:00 22.4 °F 6.1 °F 30.44 in ESE 4.0 mph 4.0 mph 49% 0.00 in 0 W/m2
03:06 22.3 °F 6.4 °F 30.44 in East 3.0 mph 5.0 mph 50% 0.00 in 0 W/m2
03:12 22.2 °F 7.2 °F 30.44 in ENE 3.0 mph 5.0 mph 52% 0.00 in 0 W/m2
03:18 22.2 °F 7.2 °F 30.44 in ENE 3.0 mph 5.0 mph 52% 0.00 in 0 W/m2
03:24 22.1 °F 7.6 °F 30.44 in NE 3.0 mph 6.0 mph 53% 0.00 in 0 W/m2
03:30 22.0 °F 7.9 °F 30.44 in ENE 3.0 mph 3.0 mph 54% 0.00 in 0 W/m2
03:36 22.0 °F 7.9 °F 30.44 in East 3.0 mph 3.0 mph 54% 0.00 in 0 W/m2
03:42 21.9 °F 8.2 °F 30.43 in ENE 3.0 mph 4.0 mph 55% 0.00 in 0 W/m2
03:48 21.9 °F 8.2 °F 30.43 in ENE 3.0 mph 7.0 mph 55% 0.00 in 0 W/m2
03:54 21.8 °F 8.5 °F 30.43 in ENE 3.0 mph 3.0 mph 56% 0.00 in 0 W/m2
04:00 21.8 °F 8.1 °F 30.43 in ESE 3.0 mph 3.0 mph 55% 0.00 in 0 W/m2
04:06 21.8 °F 8.5 °F 30.43 in SE 3.0 mph 4.0 mph 56% 0.00 in 0 W/m2
04:12 21.9 °F 8.6 °F 30.43 in ENE 3.0 mph 6.0 mph 56% 0.00 in 0 W/m2
04:18 21.9 °F 9.0 °F 30.43 in East 3.0 mph 7.0 mph 57% 0.00 in 0 W/m2
04:24 21.8 °F 8.9 °F 30.42 in East 3.0 mph 5.0 mph 57% 0.00 in 0 W/m2
04:30 21.8 °F 9.3 °F 30.42 in East 3.0 mph 5.0 mph 58% 0.00 in 0 W/m2
04:36 21.8 °F 8.9 °F 30.42 in ENE 3.0 mph 6.0 mph 57% 0.00 in 0 W/m2
04:42 21.8 °F 8.9 °F 30.42 in East 4.0 mph 4.0 mph 57% 0.00 in 0 W/m2
04:48 21.9 °F 9.0 °F 30.42 in ENE 5.0 mph 7.0 mph 57% 0.00 in 0 W/m2
04:54 21.9 °F 8.6 °F 30.43 in ENE 4.0 mph 8.0 mph 56% 0.00 in 0 W/m2
05:00 21.9 °F 9.0 °F 30.43 in ENE 4.0 mph 4.0 mph 57% 0.00 in 0 W/m2
05:06 21.9 °F 8.6 °F 30.43 in East 3.0 mph 4.0 mph 56% 0.00 in 0 W/m2
05:12 21.9 °F 8.6 °F 30.43 in ENE 3.0 mph 4.0 mph 56% 0.00 in 0 W/m2
05:18 21.7 °F 8.8 °F 30.42 in East 4.0 mph 6.0 mph 57% 0.00 in 0 W/m2
05:24 21.5 °F 9.0 °F 30.42 in ENE 4.0 mph 5.0 mph 58% 0.00 in 0 W/m2
05:30 21.3 °F 8.8 °F 30.42 in East 4.0 mph 4.0 mph 58% 0.00 in 0 W/m2
05:36 21.1 °F 8.6 °F 30.41 in ESE 4.0 mph 6.0 mph 58% 0.00 in 0 W/m2
05:42 20.9 °F 8.4 °F 30.41 in ESE 4.0 mph 9.0 mph 58% 0.00 in 0 W/m2
05:48 20.8 °F 8.7 °F 30.41 in East 5.0 mph 9.0 mph 59% 0.00 in 0 W/m2
05:54 20.8 °F 8.7 °F 30.41 in East 4.0 mph 4.0 mph 59% 0.00 in 0 W/m2
06:00 20.8 °F 8.7 °F 30.41 in East 4.0 mph 4.0 mph 59% 0.00 in 0 W/m2
06:06 20.7 °F 8.6 °F 30.41 in East 2.0 mph 4.0 mph 59% 0.00 in 0 W/m2
06:12 20.6 °F 8.9 °F 30.41 in ENE 2.0 mph 5.0 mph 60% 0.00 in 0 W/m2
06:18 20.6 °F 8.5 °F 30.41 in East 4.0 mph 7.0 mph 59% 0.00 in 0 W/m2
06:24 20.6 °F 8.5 °F 30.40 in East 5.0 mph 7.0 mph 59% 0.00 in 0 W/m2
06:30 20.6 °F 8.5 °F 30.40 in ENE 5.0 mph 5.0 mph 59% 0.00 in 0 W/m2
06:36 20.6 °F 8.5 °F 30.40 in ENE 5.0 mph 7.0 mph 59% 0.00 in 5 W/m2
06:42 20.6 °F 8.5 °F 30.40 in ENE 4.0 mph 7.0 mph 59% 0.00 in 12 W/m2
06:48 20.7 °F 8.2 °F 30.41 in ESE 3.0 mph 7.0 mph 58% 0.00 in 18 W/m2
06:54 20.8 °F 7.9 °F 30.41 in ENE 2.0 mph 5.0 mph 57% 0.00 in 21 W/m2
07:00 20.9 °F 8.0 °F 30.41 in ENE 3.0 mph 4.0 mph 57% 0.00 in 23 W/m2
07:06 21.0 °F 8.1 °F 30.41 in ENE 3.0 mph 4.0 mph 57% 0.00 in 26 W/m2
07:12 21.2 °F 8.3 °F 30.41 in ESE 4.0 mph 4.0 mph 57% 0.00 in 33 W/m2
07:18 21.4 °F 8.5 °F 30.41 in ENE 3.0 mph 5.0 mph 57% 0.00 in 40 W/m2
07:24 21.7 °F 8.8 °F 30.41 in East 3.0 mph 3.0 mph 57% 0.00 in 46 W/m2
07:30 21.9 °F 8.6 °F 30.40 in East 3.0 mph 3.0 mph 56% 0.00 in 44 W/m2
07:36 22.2 °F 8.9 °F 30.40 in East 2.0 mph 5.0 mph 56% 0.00 in 47 W/m2
07:42 22.4 °F 8.7 °F 30.40 in ENE 2.0 mph 2.0 mph 55% 0.00 in 62 W/m2
07:48 22.6 °F 8.8 °F 30.39 in ENE 2.0 mph 5.0 mph 55% 0.00 in 97 W/m2
07:54 23.1 °F 9.3 °F 30.39 in ESE 3.0 mph 5.0 mph 55% 0.00 in 134 W/m2
08:00 24.0 °F 9.3 °F 30.38 in East 3.0 mph 3.0 mph 53% 0.00 in 192 W/m2
08:06 24.1 °F 9.0 °F 30.38 in ENE 4.0 mph 9.0 mph 52% 0.00 in 62 W/m2
08:12 24.1 °F 9.0 °F 30.38 in ESE 4.0 mph 4.0 mph 52% 0.00 in 58 W/m2
08:18 24.2 °F 8.7 °F 30.39 in ESE 3.0 mph 4.0 mph 51% 0.00 in 56 W/m2
08:24 24.4 °F 9.3 °F 30.38 in East 3.0 mph 3.0 mph 52% 0.00 in 51 W/m2
08:30 24.6 °F 8.6 °F 30.38 in ENE 3.0 mph 3.0 mph 50% 0.00 in 53 W/m2
08:36 24.7 °F 9.1 °F 30.38 in ENE 3.0 mph 5.0 mph 51% 0.00 in 58 W/m2
08:42 25.0 °F 9.4 °F 30.38 in ESE 4.0 mph 4.0 mph 51% 0.00 in 58 W/m2
08:48 25.2 °F 10.0 °F 30.38 in East 4.0 mph 5.0 mph 52% 0.00 in 58 W/m2
08:54 25.3 °F 9.7 °F 30.38 in East 4.0 mph 4.0 mph 51% 0.00 in 65 W/m2
09:00 25.4 °F 9.8 °F 30.37 in East 4.0 mph 6.0 mph 51% 0.00 in 62 W/m2
09:06 25.4 °F 9.3 °F 30.37 in East 4.0 mph 6.0 mph 50% 0.00 in 56 W/m2
09:10 25.3 °F 9.7 °F 30.37 in East 5.0 mph 6.0 mph 51% 0.00 in 53 W/m2
09:16 25.4 °F 10.2 °F 30.37 in East 5.0 mph 6.0 mph 52% 0.00 in 54 W/m2
09:18 25.4 °F 9.8 °F 30.37 in East 4.0 mph 6.0 mph 51% 0.00 in 56 W/m2
09:24 25.5 °F 9.9 °F 30.36 in East 3.0 mph 5.0 mph 51% 0.00 in 60 W/m2
09:30 25.5 °F 10.3 °F 30.36 in East 4.0 mph 5.0 mph 52% 0.00 in 69 W/m2
09:36 25.6 °F 10.0 °F 30.36 in ENE 4.0 mph 5.0 mph 51% 0.00 in 74 W/m2
09:42 25.7 °F 10.0 °F 30.36 in ENE 4.0 mph 8.0 mph 51% 0.00 in 69 W/m2
09:48 25.9 °F 10.2 °F 30.36 in ENE 5.0 mph 8.0 mph 51% 0.00 in 88 W/m2
09:54 26.1 °F 10.4 °F 30.36 in ENE 5.0 mph 9.0 mph 51% 0.00 in 107 W/m2
10:00 26.4 °F 10.3 °F 30.36 in ENE 4.0 mph 4.0 mph 50% 0.00 in 123 W/m2
10:06 26.9 °F 11.2 °F 30.35 in NE 3.0 mph 5.0 mph 51% 0.00 in 144 W/m2
10:12 27.2 °F 11.0 °F 30.35 in ENE 4.0 mph 4.0 mph 50% 0.00 in 160 W/m2
10:18 27.8 °F 11.1 °F 30.34 in East 4.0 mph 5.0 mph 49% 0.00 in 156 W/m2
10:24 28.1 °F 10.9 °F 30.34 in East 4.0 mph 5.0 mph 48% 0.00 in 188 W/m2
10:30 28.5 °F 11.3 °F 30.33 in East 5.0 mph 5.0 mph 48% 0.00 in 264 W/m2
10:36 29.2 °F 11.9 °F 30.33 in East 5.0 mph 6.0 mph 48% 0.00 in 311 W/m2
10:42 30.1 °F 12.3 °F 30.33 in NE 3.0 mph 4.0 mph 47% 0.00 in 348 W/m2
10:48 30.4 °F 12.5 °F 30.33 in ENE 4.0 mph 7.0 mph 47% 0.00 in 257 W/m2
10:54 30.6 °F 12.7 °F 30.33 in ESE 4.0 mph 4.0 mph 47% 0.00 in 241 W/m2
11:00 31.0 °F 12.6 °F 30.33 in ENE 3.0 mph 3.0 mph 46% 0.00 in 216 W/m2
11:06 30.9 °F 11.5 °F 30.33 in East 4.0 mph 5.0 mph 44% 0.00 in 267 W/m2
11:12 31.5 °F 12.6 °F 30.33 in East 4.0 mph 5.0 mph 45% 0.00 in 239 W/m2
11:18 31.7 °F 12.2 °F 30.32 in ESE 4.0 mph 6.0 mph 44% 0.00 in 248 W/m2
11:24 31.9 °F 12.4 °F 30.32 in East 4.0 mph 5.0 mph 44% 0.00 in 294 W/m2
11:30 32.7 °F 14.2 °F 30.31 in NNE 3.0 mph 3.0 mph 46% 0.00 in 316 W/m2
11:36 33.3 °F 13.7 °F 30.31 in East 3.0 mph 3.0 mph 44% 0.00 in 336 W/m2
11:42 33.4 °F 13.3 °F 30.31 in ENE 4.0 mph 4.0 mph 43% 0.00 in 345 W/m2
11:48 33.5 °F 14.4 °F 30.31 in ENE 5.0 mph 5.0 mph 45% 0.00 in 302 W/m2
11:54 33.9 °F 14.8 °F 30.31 in NE 3.0 mph 4.0 mph 45% 0.00 in 315 W/m2
12:00 34.2 °F 15.0 °F 30.30 in East 4.0 mph 11.0 mph 45% 0.00 in 364 W/m2
12:06 34.5 °F 14.8 °F 30.30 in NE 4.0 mph 11.0 mph 44% 0.00 in 339 W/m2
12:12 34.9 °F 15.2 °F 30.30 in SSE 3.0 mph 4.0 mph 44% 0.00 in 376 W/m2
12:18 35.7 °F 15.4 °F 30.30 in NE 2.0 mph 4.0 mph 43% 0.00 in 383 W/m2
12:24 35.6 °F 15.8 °F 30.30 in East 3.0 mph 4.0 mph 44% 0.00 in 352 W/m2
12:30 35.9 °F 14.5 °F 30.30 in ENE 4.0 mph 4.0 mph 41% 0.00 in 320 W/m2
12:36 36.1 °F 15.2 °F 30.30 in ENE 4.0 mph 6.0 mph 42% 0.00 in 330 W/m2
12:42 36.8 °F 16.4 °F 30.29 in ENE 3.0 mph 4.0 mph 43% 0.00 in 383 W/m2
12:48 37.6 °F 16.0 °F 30.29 in ENE 3.0 mph 7.0 mph 41% 0.00 in 345 W/m2
12:54 38.5 °F 16.2 °F 30.28 in ESE 3.0 mph 7.0 mph 40% 0.00 in 378 W/m2
13:00 38.3 °F 16.1 °F 30.28 in East 3.0 mph 6.0 mph 40% 0.00 in 380 W/m2
13:06 38.4 °F 16.7 °F 30.28 in ENE 4.0 mph 6.0 mph 41% 0.00 in 439 W/m2
13:12 38.8 °F 16.5 °F 30.27 in ENE 5.0 mph 7.0 mph 40% 0.00 in 415 W/m2
13:18 40.0 °F 19.3 °F 30.27 in NE 4.0 mph 7.0 mph 43% 0.00 in 429 W/m2
13:24 41.1 °F 19.2 °F 30.26 in East 3.0 mph 8.0 mph 41% 0.00 in 425 W/m2
13:30 40.0 °F 17.0 °F 30.25 in ENE 3.0 mph 3.0 mph 39% 0.00 in 494 W/m2
13:36 40.5 °F 18.0 °F 30.25 in NE 5.0 mph 5.0 mph 40% 0.00 in 459 W/m2
13:42 40.7 °F 18.8 °F 30.25 in ESE 4.0 mph 4.0 mph 41% 0.00 in 374 W/m2
13:48 41.0 °F 18.5 °F 30.25 in ESE 4.0 mph 4.0 mph 40% 0.00 in 315 W/m2
13:54 41.5 °F 20.1 °F 30.25 in NE 3.0 mph 4.0 mph 42% 0.00 in 336 W/m2
14:00 42.7 °F 20.0 °F 30.25 in ENE 1.0 mph 1.0 mph 40% 0.00 in 425 W/m2
14:06 42.4 °F 19.2 °F 30.25 in NNE 2.0 mph 4.0 mph 39% 0.00 in 373 W/m2
14:12 42.0 °F 18.8 °F 30.25 in East 3.0 mph 5.0 mph 39% 0.00 in 413 W/m2
14:18 41.9 °F 19.3 °F 30.24 in ENE 3.0 mph 5.0 mph 40% 0.00 in 250 W/m2
14:24 41.6 °F 19.0 °F 30.24 in East 3.0 mph 5.0 mph 40% 0.00 in 250 W/m2
14:30 41.4 °F 18.9 °F 30.23 in East 4.0 mph 4.0 mph 40% 0.00 in 364 W/m2
14:36 41.3 °F 18.8 °F 30.23 in East 5.0 mph 5.0 mph 40% 0.00 in 388 W/m2
14:44 41.0 °F 18.5 °F 30.23 in ENE 6.0 mph 6.0 mph 40% 0.00 in 436 W/m2
14:50 41.3 °F 19.3 °F 30.23 in East 5.0 mph 7.0 mph 41% 0.00 in 306 W/m2
14:56 41.3 °F 18.2 °F 30.24 in ENE 4.0 mph 7.0 mph 39% 0.00 in 272 W/m2
15:02 41.6 °F 19.0 °F 30.24 in NE 4.0 mph 4.0 mph 40% 0.00 in 369 W/m2
15:08 42.2 °F 20.2 °F 30.24 in East 4.0 mph 5.0 mph 41% 0.00 in 341 W/m2
15:14 42.1 °F 19.5 °F 30.23 in NE 3.0 mph 4.0 mph 40% 0.00 in 327 W/m2
15:20 42.0 °F 19.4 °F 30.23 in East 4.0 mph 6.0 mph 40% 0.00 in 172 W/m2
15:26 41.9 °F 19.3 °F 30.23 in ENE 4.0 mph 6.0 mph 40% 0.00 in 225 W/m2
15:32 41.9 °F 19.3 °F 30.22 in ENE 4.0 mph 4.0 mph 40% 0.00 in 262 W/m2
15:38 41.8 °F 19.2 °F 30.22 in ENE 5.0 mph 7.0 mph 40% 0.00 in 206 W/m2
15:44 42.0 °F 20.0 °F 30.22 in NNE 4.0 mph 5.0 mph 41% 0.00 in 146 W/m2
15:50 41.9 °F 19.3 °F 30.22 in ENE 2.0 mph 3.0 mph 40% 0.00 in 120 W/m2
15:56 41.7 °F 19.7 °F 30.22 in ENE 3.0 mph 6.0 mph 41% 0.00 in 134 W/m2
16:02 41.6 °F 19.0 °F 30.22 in NE 3.0 mph 3.0 mph 40% 0.00 in 111 W/m2
16:08 41.5 °F 19.5 °F 30.22 in ENE 3.0 mph 4.0 mph 41% 0.00 in 86 W/m2
16:14 41.4 °F 18.9 °F 30.22 in East 3.0 mph 5.0 mph 40% 0.00 in 83 W/m2
16:20 41.3 °F 19.3 °F 30.22 in East 4.0 mph 4.0 mph 41% 0.00 in 62 W/m2
16:26 41.2 °F 19.8 °F 30.22 in East 4.0 mph 8.0 mph 42% 0.00 in 56 W/m2
16:32 41.1 °F 19.7 °F 30.21 in NE 4.0 mph 4.0 mph 42% 0.00 in 54 W/m2
16:38 41.0 °F 19.6 °F 30.21 in East 3.0 mph 5.0 mph 42% 0.00 in 47 W/m2
16:44 41.0 °F 19.6 °F 30.22 in ENE 2.0 mph 3.0 mph 42% 0.00 in 47 W/m2
16:50 41.0 °F 19.6 °F 30.22 in ENE 2.0 mph 2.0 mph 42% 0.00 in 44 W/m2
16:56 41.0 °F 20.2 °F 30.22 in ENE 2.0 mph 2.0 mph 43% 0.00 in 39 W/m2
17:02 40.9 °F 19.5 °F 30.22 in East 2.0 mph 4.0 mph 42% 0.00 in 28 W/m2
17:08 40.8 °F 20.0 °F 30.22 in ENE 2.0 mph 5.0 mph 43% 0.00 in 25 W/m2
17:12 40.7 °F 19.9 °F 30.22 in East 1.0 mph 2.0 mph 43% 0.00 in 26 W/m2
17:18 40.7 °F 20.5 °F 30.22 in ENE 2.0 mph 2.0 mph 44% 0.00 in 30 W/m2
17:24 40.6 °F 21.4 °F 30.22 in East 2.0 mph 2.0 mph 46% 0.00 in 35 W/m2
17:26 40.5 °F 20.8 °F 30.22 in East 2.0 mph 2.0 mph 45% 0.00 in 37 W/m2
17:32 40.5 °F 20.3 °F 30.22 in East 2.0 mph 2.0 mph 44% 0.00 in 26 W/m2
17:38 40.4 °F 20.7 °F 30.21 in ESE 2.0 mph 2.0 mph 45% 0.00 in 12 W/m2
17:44 40.3 °F 21.1 °F 30.21 in East 2.0 mph 3.0 mph 46% 0.00 in 7 W/m2
17:50 40.3 °F 20.1 °F 30.21 in East 3.0 mph 3.0 mph 44% 0.00 in 0 W/m2
17:56 40.2 °F 20.5 °F 30.20 in East 3.0 mph 6.0 mph 45% 0.00 in 0 W/m2
18:02 40.3 °F 20.1 °F 30.20 in ENE 2.0 mph 4.0 mph 44% 0.00 in 0 W/m2
18:10 40.2 °F 20.0 °F 30.20 in East 2.0 mph 2.0 mph 44% 0.00 in 0 W/m2
18:16 40.2 °F 21.0 °F 30.20 in East 3.0 mph 3.0 mph 46% 0.00 in 0 W/m2
18:22 40.3 °F 20.1 °F 30.20 in ENE 3.0 mph 4.0 mph 44% 0.00 in 0 W/m2
18:26 40.2 °F 20.5 °F 30.20 in ENE 3.0 mph 3.0 mph 45% 0.00 in 0 W/m2
18:32 40.0 °F 21.4 °F 30.20 in ENE 2.0 mph 5.0 mph 47% 0.00 in 0 W/m2
18:38 39.7 °F 19.5 °F 30.21 in NE 3.0 mph 4.0 mph 44% 0.00 in 0 W/m2
18:44 39.5 °F 20.4 °F 30.21 in ENE 3.0 mph 4.0 mph 46% 0.00 in 0 W/m2
18:50 39.4 °F 19.8 °F 30.20 in ENE 3.0 mph 7.0 mph 45% 0.00 in 0 W/m2
18:56 39.3 °F 18.6 °F 30.20 in ENE 3.0 mph 7.0 mph 43% 0.00 in 0 W/m2
19:03 39.4 °F 18.2 °F 30.20 in East 4.0 mph 5.0 mph 42% 0.00 in 0 W/m2
19:08 39.2 °F 18.5 °F 30.20 in ENE 3.0 mph 5.0 mph 43% 0.00 in 0 W/m2
19:14 39.1 °F 20.0 °F 30.20 in East 3.0 mph 3.0 mph 46% 0.00 in 0 W/m2
19:20 39.0 °F 19.4 °F 30.20 in NE 3.0 mph 3.0 mph 45% 0.00 in 0 W/m2
19:26 38.9 °F 18.8 °F 30.20 in ENE 3.0 mph 4.0 mph 44% 0.00 in 0 W/m2
19:32 38.8 °F 19.2 °F 30.20 in ENE 2.0 mph 5.0 mph 45% 0.00 in 0 W/m2
19:36 38.5 °F 19.5 °F 30.20 in ENE 3.0 mph 5.0 mph 46% 0.00 in 0 W/m2
19:42 37.9 °F 19.9 °F 30.20 in NE 3.0 mph 3.0 mph 48% 0.00 in 0 W/m2
19:48 38.0 °F 20.0 °F 30.20 in East 3.0 mph 3.0 mph 48% 0.00 in 0 W/m2
19:54 37.8 °F 20.3 °F 30.20 in East 1.0 mph 2.0 mph 49% 0.00 in 0 W/m2
20:00 37.6 °F 20.1 °F 30.20 in East 1.0 mph 2.0 mph 49% 0.00 in 0 W/m2
20:06 37.4 °F 20.0 °F 30.20 in East 2.0 mph 3.0 mph 49% 0.00 in 0 W/m2
20:12 37.6 °F 20.1 °F 30.20 in ENE 2.0 mph 3.0 mph 49% 0.00 in 0 W/m2
20:18 37.6 °F 20.1 °F 30.20 in East 2.0 mph 3.0 mph 49% 0.00 in 0 W/m2
20:24 37.6 °F 20.1 °F 30.20 in ENE 2.0 mph 3.0 mph 49% 0.00 in 0 W/m2
20:30 37.8 °F 20.3 °F 30.20 in ENE 2.0 mph 4.0 mph 49% 0.00 in 0 W/m2
20:36 38.0 °F 19.5 °F 30.20 in ENE 3.0 mph 4.0 mph 47% 0.00 in 0 W/m2
20:42 37.8 °F 20.8 °F 30.20 in ENE 3.0 mph 3.0 mph 50% 0.00 in 0 W/m2
20:48 37.7 °F 20.7 °F 30.20 in ENE 3.0 mph 3.0 mph 50% 0.00 in 0 W/m2
20:54 37.9 °F 20.4 °F 30.20 in ENE 3.0 mph 5.0 mph 49% 0.00 in 0 W/m2
21:00 37.9 °F 19.4 °F 30.20 in East 3.0 mph 6.0 mph 47% 0.00 in 0 W/m2
21:06 37.8 °F 20.3 °F 30.20 in East 3.0 mph 6.0 mph 49% 0.00 in 0 W/m2
21:08 37.8 °F 19.3 °F 30.20 in ENE 3.0 mph 6.0 mph 47% 0.00 in 0 W/m2
21:14 38.2 °F 19.2 °F 30.20 in East 4.0 mph 6.0 mph 46% 0.00 in 0 W/m2
21:20 38.0 °F 20.0 °F 30.21 in NE 3.0 mph 3.0 mph 48% 0.00 in 0 W/m2
21:26 37.9 °F 20.9 °F 30.21 in ENE 3.0 mph 3.0 mph 50% 0.00 in 0 W/m2
21:32 37.7 °F 20.2 °F 30.21 in ENE 2.0 mph 2.0 mph 49% 0.00 in 0 W/m2
21:38 37.7 °F 20.7 °F 30.21 in ENE 3.0 mph 3.0 mph 50% 0.00 in 0 W/m2
21:44 37.9 °F 19.4 °F 30.21 in ENE 3.0 mph 4.0 mph 47% 0.00 in 0 W/m2
21:50 38.1 °F 19.6 °F 30.20 in ENE 4.0 mph 4.0 mph 47% 0.00 in 0 W/m2
21:56 38.0 °F 20.0 °F 30.20 in NE 4.0 mph 4.0 mph 48% 0.00 in 0 W/m2
22:02 38.1 °F 18.1 °F 30.20 in East 4.0 mph 5.0 mph 44% 0.00 in 0 W/m2
22:08 37.9 °F 19.4 °F 30.20 in NE 4.0 mph 6.0 mph 47% 0.00 in 0 W/m2
22:14 38.0 °F 19.5 °F 30.20 in ENE 4.0 mph 7.0 mph 47% 0.00 in 0 W/m2
22:20 38.1 °F 18.6 °F 30.20 in East 5.0 mph 6.0 mph 45% 0.00 in 0 W/m2
22:26 38.1 °F 18.1 °F 30.19 in ENE 5.0 mph 8.0 mph 44% 0.00 in 0 W/m2
22:32 38.1 °F 18.6 °F 30.19 in East 4.0 mph 5.0 mph 45% 0.00 in 0 W/m2
22:38 37.9 °F 19.9 °F 30.19 in ENE 3.0 mph 5.0 mph 48% 0.00 in 0 W/m2
22:44 38.1 °F 18.6 °F 30.19 in East 3.0 mph 5.0 mph 45% 0.00 in 0 W/m2
22:50 38.2 °F 18.2 °F 30.19 in ENE 3.0 mph 4.0 mph 44% 0.00 in 0 W/m2
22:56 38.3 °F 18.8 °F 30.19 in East 4.0 mph 4.0 mph 45% 0.00 in 0 W/m2
23:02 38.2 °F 19.2 °F 30.18 in ENE 4.0 mph 4.0 mph 46% 0.00 in 0 W/m2
23:08 38.4 °F 19.9 °F 30.18 in East 3.0 mph 4.0 mph 47% 0.00 in 0 W/m2
23:14 38.4 °F 19.9 °F 30.18 in ESE 3.0 mph 4.0 mph 47% 0.00 in 0 W/m2
23:20 38.5 °F 19.0 °F 30.18 in ENE 3.0 mph 3.0 mph 45% 0.00 in 0 W/m2
23:26 38.4 °F 19.9 °F 30.18 in ENE 3.0 mph 3.0 mph 47% 0.00 in 0 W/m2
23:32 38.6 °F 20.6 °F 30.18 in East 3.0 mph 3.0 mph 48% 0.00 in 0 W/m2
23:38 38.5 °F 21.0 °F 30.18 in East 2.0 mph 5.0 mph 49% 0.00 in 0 W/m2
23:44 38.4 °F 20.9 °F 30.17 in ENE 2.0 mph 3.0 mph 49% 0.00 in 0 W/m2
23:50 38.3 °F 22.6 °F 30.17 in East 3.0 mph 3.0 mph 53% 0.00 in 0 W/m2
23:56 38.4 °F 21.8 °F 30.17 in East 2.0 mph 5.0 mph 51% 0.00 in 0 W/m2
Country Meadow, Clay, NY, USA
Compliments of Weather Underground - 2 mb